메인 페이지
METAR-TAF:

METAR-TAF

공항 :

노이바이 국제공항

하노이, 베트남

위도: 21-01N, 경도: 105-48E, 고도: 6m

현재 날씨관측

예보는 14분 전, 21:30시(UTC)에 발표되었습니다.
8kt
온도 26°C
습도 94%
기압 1009 hPa
시정: 6000m
고도 1100ft 상공 구름 조금

METAR: VVNB 222130Z 10008KT 6000 FEW011 26/25 Q1009 NOSIG

시각: 04:44 (21:44 UTC)

예보

예보는 4 시간 44분 전, 17:00시(UTC)에 발표되었습니다.
예보 대상 시간: 22일 18시부터 23일 18시까지 (UTC)
동남동8kt
시정 10km 이상
고도 2300ft 상공 구름 조금
고도 10000ft 상공 구름 많음
일시적
22일 21시부터 23일 01시까지 (UTC)
여러 방향의 바람 15kt, 순간 최대 풍속 30kt
시정: 3000m
고도 1700ft 상공 구름 많음
고도 2700ft 상공 구름 조금, 적란운.
뇌우, 강한비
일시적
23일 10시부터 23일 14시까지 (UTC)
시정: 4000m
고도 1700ft 상공 구름 보통
고도 3000ft 상공 구름 조금, 적란운.
고도 4000ft 상공 구름 많음
뇌우, 비

TAF: VVNB 221700Z 2218/2318 12008KT 9999 FEW023 BKN100 TEMPO 2221/2301 VRB15G30KT 3000 +TSRA BKN017 FEW027CB TEMPO 2310/2314 4000 TSRA SCT017 FEW030CB BKN040

4,000개 이상의 공항 관측 자료 및 예보 (METAR 및 TAF 보고).

지도상에서 검색 가능한 기상관측소가 노란 점과 빨간 점으로 표시되어 있습니다.

기상관측소 명을 보려면 표시 위로 마우스를 이동하세요.

날씨 관측과 예보를 보려면 클릭하세요.

지도 변경 : 확대하려면 엑스 표시가 있는 녹색 버튼, 축소하려면 빼기 표시가 있는 녹색 버튼, 다음 페이지의 지도를 보려면 녹색 화살표를 클릭하세요.


METAR-TAF: